sensor_id;sensor_type;location;lat;lon;timestamp;P1;durP1;ratioP1;P2;durP2;ratioP2
54641;SDS011;40536;53.194;5.728;2023-08-31T00:01:40;210.00;;;200.93;;
54641;SDS011;40536;53.194;5.728;2023-08-31T00:04:06;222.20;;;212.93;;
54641;SDS011;40536;53.194;5.728;2023-08-31T00:06:39;256.77;;;245.85;;
54641;SDS011;40536;53.194;5.728;2023-08-31T00:09:10;280.88;;;268.77;;
54641;SDS011;40536;53.194;5.728;2023-08-31T00:11:36;334.58;;;319.55;;
54641;SDS011;40536;53.194;5.728;2023-08-31T00:14:02;499.23;;;473.92;;
54641;SDS011;40536;53.194;5.728;2023-08-31T00:16:28;245.00;;;234.45;;
54641;SDS011;40536;53.194;5.728;2023-08-31T00:18:55;258.50;;;247.18;;
54641;SDS011;40536;53.194;5.728;2023-08-31T00:21:21;238.20;;;227.77;;
54641;SDS011;40536;53.194;5.728;2023-08-31T00:23:47;266.58;;;254.98;;
54641;SDS011;40536;53.194;5.728;2023-08-31T00:26:13;332.30;;;316.75;;
54641;SDS011;40536;53.194;5.728;2023-08-31T00:28:39;357.98;;;341.30;;
54641;SDS011;40536;53.194;5.728;2023-08-31T00:31:07;378.40;;;359.83;;
54641;SDS011;40536;53.194;5.728;2023-08-31T00:33:33;444.90;;;422.40;;
54641;SDS011;40536;53.194;5.728;2023-08-31T00:36:02;492.05;;;466.25;;
54641;SDS011;40536;53.194;5.728;2023-08-31T00:38:28;555.15;;;523.13;;
54641;SDS011;40536;53.194;5.728;2023-08-31T00:40:57;513.10;;;485.25;;
54641;SDS011;40536;53.194;5.728;2023-08-31T00:43:23;572.25;;;540.70;;
54641;SDS011;40536;53.194;5.728;2023-08-31T00:45:49;588.88;;;554.78;;
54641;SDS011;40536;53.194;5.728;2023-08-31T00:48:17;647.03;;;607.40;;
54641;SDS011;40536;53.194;5.728;2023-08-31T00:50:47;569.28;;;537.47;;
54641;SDS011;40536;53.194;5.728;2023-08-31T00:53:13;556.63;;;526.03;;
54641;SDS011;40536;53.194;5.728;2023-08-31T00:55:41;614.55;;;578.17;;
54641;SDS011;40536;53.194;5.728;2023-08-31T00:58:07;632.58;;;595.15;;
54641;SDS011;40536;53.194;5.728;2023-08-31T01:06:00;640.53;;;602.00;;
54641;SDS011;40536;53.194;5.728;2023-08-31T01:11:21;668.67;;;626.97;;
54641;SDS011;40536;53.194;5.728;2023-08-31T01:14:07;732.47;;;685.33;;
54641;SDS011;40536;53.194;5.728;2023-08-31T01:16:36;743.00;;;694.35;;
54641;SDS011;40536;53.194;5.728;2023-08-31T01:19:10;789.47;;;736.00;;
54641;SDS011;40536;53.194;5.728;2023-08-31T01:21:53;711.80;;;666.33;;
54641;SDS011;40536;53.194;5.728;2023-08-31T01:24:22;738.72;;;691.67;;
54641;SDS011;40536;53.194;5.728;2023-08-31T01:26:49;754.38;;;705.88;;
54641;SDS011;40536;53.194;5.728;2023-08-31T01:29:17;748.78;;;700.67;;
54641;SDS011;40536;53.194;5.728;2023-08-31T01:31:44;716.20;;;670.67;;
54641;SDS011;40536;53.194;5.728;2023-08-31T01:34:12;805.42;;;748.90;;
54641;SDS011;40536;53.194;5.728;2023-08-31T01:36:39;846.65;;;784.70;;
54641;SDS011;40536;53.194;5.728;2023-08-31T01:39:20;840.53;;;779.65;;
54641;SDS011;40536;53.194;5.728;2023-08-31T01:41:55;803.15;;;747.95;;
54641;SDS011;40536;53.194;5.728;2023-08-31T01:44:23;790.60;;;737.20;;
54641;SDS011;40536;53.194;5.728;2023-08-31T01:46:53;795.42;;;741.40;;
54641;SDS011;40536;53.194;5.728;2023-08-31T01:49:20;828.85;;;770.22;;
54641;SDS011;40536;53.194;5.728;2023-08-31T01:51:48;796.53;;;742.60;;
54641;SDS011;40536;53.194;5.728;2023-08-31T01:54:14;785.88;;;731.58;;
54641;SDS011;40536;53.194;5.728;2023-08-31T01:56:39;799.47;;;743.80;;
54641;SDS011;40536;53.194;5.728;2023-08-31T01:59:05;815.53;;;758.80;;
54641;SDS011;40536;53.194;5.728;2023-08-31T02:01:32;839.60;;;780.00;;
54641;SDS011;40536;53.194;5.728;2023-08-31T02:03:58;835.60;;;775.85;;
54641;SDS011;40536;53.194;5.728;2023-08-31T02:06:23;829.65;;;772.38;;
54641;SDS011;40536;53.194;5.728;2023-08-31T02:08:49;817.42;;;761.47;;
54641;SDS011;40536;53.194;5.728;2023-08-31T02:11:15;809.25;;;756.22;;
54641;SDS011;40536;53.194;5.728;2023-08-31T02:13:41;762.63;;;713.90;;
54641;SDS011;40536;53.194;5.728;2023-08-31T02:16:07;738.58;;;692.03;;
54641;SDS011;40536;53.194;5.728;2023-08-31T02:18:32;723.85;;;678.85;;
54641;SDS011;40536;53.194;5.728;2023-08-31T02:20:58;696.28;;;653.83;;
54641;SDS011;40536;53.194;5.728;2023-08-31T02:23:24;703.13;;;659.65;;
54641;SDS011;40536;53.194;5.728;2023-08-31T02:25:49;714.20;;;671.08;;
54641;SDS011;40536;53.194;5.728;2023-08-31T02:28:15;748.90;;;701.85;;
54641;SDS011;40536;53.194;5.728;2023-08-31T02:30:44;737.33;;;690.92;;
54641;SDS011;40536;53.194;5.728;2023-08-31T02:33:11;708.17;;;664.85;;
54641;SDS011;40536;53.194;5.728;2023-08-31T02:35:36;735.90;;;688.78;;
54641;SDS011;40536;53.194;5.728;2023-08-31T02:38:02;716.40;;;672.47;;
54641;SDS011;40536;53.194;5.728;2023-08-31T02:40:28;680.00;;;639.20;;
54641;SDS011;40536;53.194;5.728;2023-08-31T02:42:53;714.38;;;670.25;;
54641;SDS011;40536;53.194;5.728;2023-08-31T02:45:19;675.80;;;635.60;;
54641;SDS011;40536;53.194;5.728;2023-08-31T02:47:45;694.72;;;652.33;;
54641;SDS011;40536;53.194;5.728;2023-08-31T02:50:10;636.20;;;599.13;;
54641;SDS011;40536;53.194;5.728;2023-08-31T02:52:36;589.63;;;556.72;;
54641;SDS011;40536;53.194;5.728;2023-08-31T02:55:01;588.10;;;555.45;;
54641;SDS011;40536;53.194;5.728;2023-08-31T02:57:27;543.45;;;514.70;;
54641;SDS011;40536;53.194;5.728;2023-08-31T02:59:53;523.38;;;496.00;;
54641;SDS011;40536;53.194;5.728;2023-08-31T03:02:18;545.60;;;516.47;;
54641;SDS011;40536;53.194;5.728;2023-08-31T03:04:44;459.95;;;436.73;;
54641;SDS011;40536;53.194;5.728;2023-08-31T03:07:10;505.25;;;479.33;;
54641;SDS011;40536;53.194;5.728;2023-08-31T03:09:39;479.33;;;455.15;;
54641;SDS011;40536;53.194;5.728;2023-08-31T03:12:05;508.00;;;481.85;;
54641;SDS011;40536;53.194;5.728;2023-08-31T03:14:30;509.63;;;483.95;;
54641;SDS011;40536;53.194;5.728;2023-08-31T03:16:56;507.92;;;481.88;;
54641;SDS011;40536;53.194;5.728;2023-08-31T03:19:22;501.33;;;475.98;;
54641;SDS011;40536;53.194;5.728;2023-08-31T03:21:47;465.15;;;442.48;;
54641;SDS011;40536;53.194;5.728;2023-08-31T03:24:13;458.52;;;436.17;;
54641;SDS011;40536;53.194;5.728;2023-08-31T03:26:38;450.00;;;427.63;;
54641;SDS011;40536;53.194;5.728;2023-08-31T03:29:04;469.20;;;445.80;;
54641;SDS011;40536;53.194;5.728;2023-08-31T03:31:30;475.75;;;452.00;;
54641;SDS011;40536;53.194;5.728;2023-08-31T03:33:56;496.38;;;471.38;;
54641;SDS011;40536;53.194;5.728;2023-08-31T03:36:22;480.15;;;455.77;;
54641;SDS011;40536;53.194;5.728;2023-08-31T03:38:49;455.42;;;432.77;;
54641;SDS011;40536;53.194;5.728;2023-08-31T03:41:14;433.25;;;411.58;;
54641;SDS011;40536;53.194;5.728;2023-08-31T03:43:40;473.02;;;450.00;;
54641;SDS011;40536;53.194;5.728;2023-08-31T03:46:06;471.35;;;447.75;;
54641;SDS011;40536;53.194;5.728;2023-08-31T03:48:31;485.90;;;461.17;;
54641;SDS011;40536;53.194;5.728;2023-08-31T03:50:57;473.58;;;449.80;;
54641;SDS011;40536;53.194;5.728;2023-08-31T03:53:23;501.38;;;475.95;;
54641;SDS011;40536;53.194;5.728;2023-08-31T03:55:48;476.38;;;452.92;;
54641;SDS011;40536;53.194;5.728;2023-08-31T03:58:14;462.38;;;439.33;;
54641;SDS011;40536;53.194;5.728;2023-08-31T04:00:40;427.13;;;406.20;;
54641;SDS011;40536;53.194;5.728;2023-08-31T04:03:07;448.85;;;426.95;;
54641;SDS011;40536;53.194;5.728;2023-08-31T04:05:33;388.00;;;369.23;;
54641;SDS011;40536;53.194;5.728;2023-08-31T04:08:00;392.48;;;373.75;;
54641;SDS011;40536;53.194;5.728;2023-08-31T04:10:26;322.75;;;307.95;;
54641;SDS011;40536;53.194;5.728;2023-08-31T04:12:54;312.42;;;298.60;;
54641;SDS011;40536;53.194;5.728;2023-08-31T04:15:20;296.05;;;283.30;;
54641;SDS011;40536;53.194;5.728;2023-08-31T04:17:46;320.98;;;306.55;;
54641;SDS011;40536;53.194;5.728;2023-08-31T04:20:12;297.08;;;284.40;;
54641;SDS011;40536;53.194;5.728;2023-08-31T04:22:38;317.88;;;304.10;;
54641;SDS011;40536;53.194;5.728;2023-08-31T04:25:04;264.80;;;253.57;;
54641;SDS011;40536;53.194;5.728;2023-08-31T04:27:29;290.42;;;277.63;;
54641;SDS011;40536;53.194;5.728;2023-08-31T04:29:56;341.85;;;326.27;;
54641;SDS011;40536;53.194;5.728;2023-08-31T04:32:24;372.10;;;354.55;;
54641;SDS011;40536;53.194;5.728;2023-08-31T04:34:50;432.92;;;412.10;;
54641;SDS011;40536;53.194;5.728;2023-08-31T04:37:16;462.58;;;439.70;;
54641;SDS011;40536;53.194;5.728;2023-08-31T04:39:42;458.02;;;435.40;;
54641;SDS011;40536;53.194;5.728;2023-08-31T04:42:08;467.90;;;444.73;;
54641;SDS011;40536;53.194;5.728;2023-08-31T04:44:34;431.08;;;409.95;;
54641;SDS011;40536;53.194;5.728;2023-08-31T04:47:00;432.98;;;412.25;;
54641;SDS011;40536;53.194;5.728;2023-08-31T04:49:25;416.17;;;396.08;;
54641;SDS011;40536;53.194;5.728;2023-08-31T04:51:51;439.10;;;418.27;;
54641;SDS011;40536;53.194;5.728;2023-08-31T04:54:17;406.70;;;387.67;;
54641;SDS011;40536;53.194;5.728;2023-08-31T04:56:43;391.33;;;372.77;;
54641;SDS011;40536;53.194;5.728;2023-08-31T04:59:09;448.30;;;426.38;;
54641;SDS011;40536;53.194;5.728;2023-08-31T05:01:34;467.63;;;444.90;;
54641;SDS011;40536;53.194;5.728;2023-08-31T05:04:00;499.38;;;474.92;;
54641;SDS011;40536;53.194;5.728;2023-08-31T05:06:27;486.27;;;462.42;;
54641;SDS011;40536;53.194;5.728;2023-08-31T05:08:53;498.90;;;474.35;;
54641;SDS011;40536;53.194;5.728;2023-08-31T05:11:19;544.85;;;517.08;;
54641;SDS011;40536;53.194;5.728;2023-08-31T05:13:45;457.45;;;434.77;;
54641;SDS011;40536;53.194;5.728;2023-08-31T05:16:11;423.98;;;403.00;;
54641;SDS011;40536;53.194;5.728;2023-08-31T05:18:37;431.08;;;409.67;;
54641;SDS011;40536;53.194;5.728;2023-08-31T05:21:05;424.95;;;404.42;;
54641;SDS011;40536;53.194;5.728;2023-08-31T05:23:30;462.02;;;439.70;;
54641;SDS011;40536;53.194;5.728;2023-08-31T05:25:56;457.55;;;435.33;;
54641;SDS011;40536;53.194;5.728;2023-08-31T05:28:22;404.40;;;385.25;;
54641;SDS011;40536;53.194;5.728;2023-08-31T05:30:49;420.33;;;400.33;;
54641;SDS011;40536;53.194;5.728;2023-08-31T05:33:16;465.60;;;443.13;;
54641;SDS011;40536;53.194;5.728;2023-08-31T05:35:42;422.58;;;402.45;;
54641;SDS011;40536;53.194;5.728;2023-08-31T05:38:07;386.35;;;367.67;;
54641;SDS011;40536;53.194;5.728;2023-08-31T05:40:33;365.88;;;348.77;;
54641;SDS011;40536;53.194;5.728;2023-08-31T05:42:59;385.45;;;367.27;;
54641;SDS011;40536;53.194;5.728;2023-08-31T05:45:24;386.92;;;368.75;;
54641;SDS011;40536;53.194;5.728;2023-08-31T05:47:50;392.13;;;373.50;;
54641;SDS011;40536;53.194;5.728;2023-08-31T05:50:16;291.48;;;278.45;;
54641;SDS011;40536;53.194;5.728;2023-08-31T05:52:41;279.73;;;267.67;;
54641;SDS011;40536;53.194;5.728;2023-08-31T05:55:12;310.90;;;297.20;;
54641;SDS011;40536;53.194;5.728;2023-08-31T05:57:37;305.45;;;291.98;;
54641;SDS011;40536;53.194;5.728;2023-08-31T06:00:04;310.70;;;296.70;;
54641;SDS011;40536;53.194;5.728;2023-08-31T06:02:32;279.33;;;267.33;;
54641;SDS011;40536;53.194;5.728;2023-08-31T06:04:58;269.83;;;258.08;;
54641;SDS011;40536;53.194;5.728;2023-08-31T06:07:23;388.20;;;370.77;;
54641;SDS011;40536;53.194;5.728;2023-08-31T06:09:49;209.52;;;200.68;;
54641;SDS011;40536;53.194;5.728;2023-08-31T06:12:15;216.15;;;207.07;;
54641;SDS011;40536;53.194;5.728;2023-08-31T06:14:40;231.48;;;221.48;;
54641;SDS011;40536;53.194;5.728;2023-08-31T06:17:06;215.38;;;206.60;;
54641;SDS011;40536;53.194;5.728;2023-08-31T06:19:31;184.63;;;177.02;;
54641;SDS011;40536;53.194;5.728;2023-08-31T06:21:57;328.95;;;314.73;;
54641;SDS011;40536;53.194;5.728;2023-08-31T06:24:22;329.42;;;315.35;;
54641;SDS011;40536;53.194;5.728;2023-08-31T06:26:48;342.00;;;327.52;;
54641;SDS011;40536;53.194;5.728;2023-08-31T06:29:14;255.75;;;244.93;;
54641;SDS011;40536;53.194;5.728;2023-08-31T06:31:39;180.88;;;173.18;;
54641;SDS011;40536;53.194;5.728;2023-08-31T06:34:05;63.67;;;60.78;;
54641;SDS011;40536;53.194;5.728;2023-08-31T06:36:31;53.70;;;51.22;;
54641;SDS011;40536;53.194;5.728;2023-08-31T06:38:56;53.00;;;50.45;;
54641;SDS011;40536;53.194;5.728;2023-08-31T06:41:22;35.30;;;33.40;;
54641;SDS011;40536;53.194;5.728;2023-08-31T06:43:47;26.45;;;24.70;;
54641;SDS011;40536;53.194;5.728;2023-08-31T06:46:13;24.77;;;23.10;;
54641;SDS011;40536;53.194;5.728;2023-08-31T06:48:39;24.15;;;22.95;;
54641;SDS011;40536;53.194;5.728;2023-08-31T06:51:04;24.48;;;22.95;;
54641;SDS011;40536;53.194;5.728;2023-08-31T06:53:30;23.17;;;21.98;;
54641;SDS011;40536;53.194;5.728;2023-08-31T06:55:58;25.90;;;24.40;;
54641;SDS011;40536;53.194;5.728;2023-08-31T06:58:24;27.13;;;25.75;;
54641;SDS011;40536;53.194;5.728;2023-08-31T07:00:50;26.65;;;25.27;;
54641;SDS011;40536;53.194;5.728;2023-08-31T07:03:15;30.33;;;28.77;;
54641;SDS011;40536;53.194;5.728;2023-08-31T07:05:41;25.45;;;24.08;;
54641;SDS011;40536;53.194;5.728;2023-08-31T07:08:08;24.95;;;23.67;;
54641;SDS011;40536;53.194;5.728;2023-08-31T07:10:34;27.50;;;25.98;;
54641;SDS011;40536;53.194;5.728;2023-08-31T07:13:03;29.95;;;28.40;;
54641;SDS011;40536;53.194;5.728;2023-08-31T07:15:29;28.70;;;26.83;;
54641;SDS011;40536;53.194;5.728;2023-08-31T07:17:55;29.48;;;27.73;;
54641;SDS011;40536;53.194;5.728;2023-08-31T07:20:21;29.52;;;27.98;;
54641;SDS011;40536;53.194;5.728;2023-08-31T07:22:46;38.22;;;36.42;;
54641;SDS011;40536;53.194;5.728;2023-08-31T07:25:12;39.22;;;37.35;;
54641;SDS011;40536;53.194;5.728;2023-08-31T07:27:38;39.35;;;37.38;;
54641;SDS011;40536;53.194;5.728;2023-08-31T07:30:04;40.47;;;38.55;;
54641;SDS011;40536;53.194;5.728;2023-08-31T07:32:30;53.65;;;51.15;;
54641;SDS011;40536;53.194;5.728;2023-08-31T07:34:57;61.90;;;59.17;;
54641;SDS011;40536;53.194;5.728;2023-08-31T07:37:22;74.75;;;71.28;;
54641;SDS011;40536;53.194;5.728;2023-08-31T07:39:48;79.32;;;75.80;;
54641;SDS011;40536;53.194;5.728;2023-08-31T07:42:14;59.97;;;57.13;;
54641;SDS011;40536;53.194;5.728;2023-08-31T07:44:39;17.33;;;15.93;;
54641;SDS011;40536;53.194;5.728;2023-08-31T07:47:07;44.58;;;42.60;;
54641;SDS011;40536;53.194;5.728;2023-08-31T07:49:32;63.55;;;60.65;;
54641;SDS011;40536;53.194;5.728;2023-08-31T07:51:58;84.63;;;81.03;;
54641;SDS011;40536;53.194;5.728;2023-08-31T07:54:24;92.22;;;88.25;;
54641;SDS011;40536;53.194;5.728;2023-08-31T07:56:51;84.05;;;80.43;;
54641;SDS011;40536;53.194;5.728;2023-08-31T07:59:17;74.53;;;71.20;;
54641;SDS011;40536;53.194;5.728;2023-08-31T08:01:43;66.80;;;63.72;;
54641;SDS011;40536;53.194;5.728;2023-08-31T08:04:10;36.85;;;35.05;;
54641;SDS011;40536;53.194;5.728;2023-08-31T08:06:36;30.30;;;28.70;;
54641;SDS011;40536;53.194;5.728;2023-08-31T08:09:02;25.50;;;24.00;;
54641;SDS011;40536;53.194;5.728;2023-08-31T08:11:31;48.70;;;46.45;;
54641;SDS011;40536;53.194;5.728;2023-08-31T08:13:59;124.18;;;118.78;;
54641;SDS011;40536;53.194;5.728;2023-08-31T08:16:26;85.13;;;81.30;;
54641;SDS011;40536;53.194;5.728;2023-08-31T08:18:52;76.32;;;72.82;;
54641;SDS011;40536;53.194;5.728;2023-08-31T08:21:18;43.42;;;40.83;;
54641;SDS011;40536;53.194;5.728;2023-08-31T08:23:43;23.25;;;21.80;;
54641;SDS011;40536;53.194;5.728;2023-08-31T08:26:09;22.75;;;21.40;;
54641;SDS011;40536;53.194;5.728;2023-08-31T08:28:34;45.88;;;43.55;;
54641;SDS011;40536;53.194;5.728;2023-08-31T08:31:01;69.68;;;66.63;;
54641;SDS011;40536;53.194;5.728;2023-08-31T08:33:30;62.13;;;59.30;;
54641;SDS011;40536;53.194;5.728;2023-08-31T08:35:56;65.97;;;63.03;;
54641;SDS011;40536;53.194;5.728;2023-08-31T08:38:22;91.30;;;87.35;;
54641;SDS011;40536;53.194;5.728;2023-08-31T08:40:48;76.72;;;73.30;;
54641;SDS011;40536;53.194;5.728;2023-08-31T08:43:14;68.10;;;64.70;;
54641;SDS011;40536;53.194;5.728;2023-08-31T08:45:42;79.72;;;76.30;;
54641;SDS011;40536;53.194;5.728;2023-08-31T08:48:12;88.63;;;84.75;;
54641;SDS011;40536;53.194;5.728;2023-08-31T08:50:39;68.90;;;65.72;;
54641;SDS011;40536;53.194;5.728;2023-08-31T08:53:05;48.83;;;46.50;;
54641;SDS011;40536;53.194;5.728;2023-08-31T08:55:32;27.08;;;25.70;;
54641;SDS011;40536;53.194;5.728;2023-08-31T08:57:58;28.77;;;27.27;;
54641;SDS011;40536;53.194;5.728;2023-08-31T09:00:28;21.38;;;20.17;;
54641;SDS011;40536;53.194;5.728;2023-08-31T09:02:55;12.80;;;11.65;;
54641;SDS011;40536;53.194;5.728;2023-08-31T09:05:21;9.32;;;8.52;;
54641;SDS011;40536;53.194;5.728;2023-08-31T09:08:00;10.63;;;9.82;;
54641;SDS011;40536;53.194;5.728;2023-08-31T09:10:35;5.32;;;4.82;;
54641;SDS011;40536;53.194;5.728;2023-08-31T09:13:06;8.27;;;6.47;;
54641;SDS011;40536;53.194;5.728;2023-08-31T09:15:46;7.88;;;4.88;;
54641;SDS011;40536;53.194;5.728;2023-08-31T09:18:13;5.22;;;4.72;;
54641;SDS011;40536;53.194;5.728;2023-08-31T09:20:49;6.68;;;5.72;;
54641;SDS011;40536;53.194;5.728;2023-08-31T09:23:15;4.75;;;4.28;;
54641;SDS011;40536;53.194;5.728;2023-08-31T09:25:45;13.43;;;12.68;;
54641;SDS011;40536;53.194;5.728;2023-08-31T09:28:13;20.15;;;19.05;;
54641;SDS011;40536;53.194;5.728;2023-08-31T09:30:40;18.23;;;17.23;;
54641;SDS011;40536;53.194;5.728;2023-08-31T09:33:07;22.55;;;21.23;;
54641;SDS011;40536;53.194;5.728;2023-08-31T09:35:38;31.05;;;29.55;;
54641;SDS011;40536;53.194;5.728;2023-08-31T09:38:07;31.85;;;30.15;;
54641;SDS011;40536;53.194;5.728;2023-08-31T09:40:33;39.50;;;37.60;;
54641;SDS011;40536;53.194;5.728;2023-08-31T09:42:58;89.68;;;85.60;;
54641;SDS011;40536;53.194;5.728;2023-08-31T09:45:31;102.57;;;98.22;;
54641;SDS011;40536;53.194;5.728;2023-08-31T09:48:01;74.55;;;71.28;;
54641;SDS011;40536;53.194;5.728;2023-08-31T09:50:31;42.10;;;40.10;;
54641;SDS011;40536;53.194;5.728;2023-08-31T09:53:01;23.95;;;22.52;;
54641;SDS011;40536;53.194;5.728;2023-08-31T09:55:29;47.17;;;44.72;;
54641;SDS011;40536;53.194;5.728;2023-08-31T09:57:56;17.95;;;16.90;;
54641;SDS011;40536;53.194;5.728;2023-08-31T10:00:27;7.38;;;6.78;;
54641;SDS011;40536;53.194;5.728;2023-08-31T10:02:55;6.28;;;4.20;;
54641;SDS011;40536;53.194;5.728;2023-08-31T10:05:22;4.35;;;3.58;;
54641;SDS011;40536;53.194;5.728;2023-08-31T10:07:49;5.72;;;3.83;;
54641;SDS011;40536;53.194;5.728;2023-08-31T10:10:15;6.32;;;4.35;;
54641;SDS011;40536;53.194;5.728;2023-08-31T10:12:42;9.00;;;8.20;;
54641;SDS011;40536;53.194;5.728;2023-08-31T10:15:10;11.00;;;10.20;;
54641;SDS011;40536;53.194;5.728;2023-08-31T10:17:37;14.00;;;13.00;;
54641;SDS011;40536;53.194;5.728;2023-08-31T10:20:05;22.63;;;21.30;;
54641;SDS011;40536;53.194;5.728;2023-08-31T10:22:33;55.13;;;52.55;;
54641;SDS011;40536;53.194;5.728;2023-08-31T10:25:00;50.60;;;48.20;;
54641;SDS011;40536;53.194;5.728;2023-08-31T10:27:28;73.13;;;69.72;;
54641;SDS011;40536;53.194;5.728;2023-08-31T10:33:02;27.60;;;26.10;;
54641;SDS011;40536;53.194;5.728;2023-08-31T10:35:52;7.97;;;7.28;;
54641;SDS011;40536;53.194;5.728;2023-08-31T10:49:00;7.03;;;6.35;;
54641;SDS011;40536;53.194;5.728;2023-08-31T10:51:31;6.18;;;5.55;;
54641;SDS011;40536;53.194;5.728;2023-08-31T10:56:50;6.10;;;5.15;;
54641;SDS011;40536;53.194;5.728;2023-08-31T10:59:23;8.35;;;4.93;;
54641;SDS011;40536;53.194;5.728;2023-08-31T11:01:51;7.50;;;5.30;;
54641;SDS011;40536;53.194;5.728;2023-08-31T11:04:24;8.00;;;7.30;;
54641;SDS011;40536;53.194;5.728;2023-08-31T11:09:44;7.32;;;6.65;;
54641;SDS011;40536;53.194;5.728;2023-08-31T11:12:13;7.10;;;5.35;;
54641;SDS011;40536;53.194;5.728;2023-08-31T11:14:39;10.60;;;9.80;;
54641;SDS011;40536;53.194;5.728;2023-08-31T11:17:05;7.35;;;6.65;;
54641;SDS011;40536;53.194;5.728;2023-08-31T11:19:31;8.65;;;7.80;;
54641;SDS011;40536;53.194;5.728;2023-08-31T11:21:58;8.48;;;7.43;;
54641;SDS011;40536;53.194;5.728;2023-08-31T11:24:26;8.13;;;7.05;;
54641;SDS011;40536;53.194;5.728;2023-08-31T11:26:51;12.52;;;7.18;;
54641;SDS011;40536;53.194;5.728;2023-08-31T11:29:18;9.73;;;8.73;;
54641;SDS011;40536;53.194;5.728;2023-08-31T11:31:44;16.80;;;15.70;;
54641;SDS011;40536;53.194;5.728;2023-08-31T11:34:13;10.73;;;9.65;;
54641;SDS011;40536;53.194;5.728;2023-08-31T11:36:42;10.68;;;9.73;;
54641;SDS011;40536;53.194;5.728;2023-08-31T11:39:09;14.80;;;13.75;;
54641;SDS011;40536;53.194;5.728;2023-08-31T11:41:36;13.55;;;12.65;;
54641;SDS011;40536;53.194;5.728;2023-08-31T11:44:07;10.90;;;10.10;;
54641;SDS011;40536;53.194;5.728;2023-08-31T11:46:34;12.35;;;11.45;;
54641;SDS011;40536;53.194;5.728;2023-08-31T11:49:04;12.75;;;11.85;;
54641;SDS011;40536;53.194;5.728;2023-08-31T11:51:31;24.00;;;22.52;;
54641;SDS011;40536;53.194;5.728;2023-08-31T11:53:59;35.55;;;33.55;;
54641;SDS011;40536;53.194;5.728;2023-08-31T11:56:27;39.55;;;37.45;;
54641;SDS011;40536;53.194;5.728;2023-08-31T11:59:06;48.88;;;46.53;;
54641;SDS011;40536;53.194;5.728;2023-08-31T12:01:37;49.35;;;46.58;;
54641;SDS011;40536;53.194;5.728;2023-08-31T12:04:24;56.58;;;53.65;;
54641;SDS011;40536;53.194;5.728;2023-08-31T12:06:53;49.80;;;47.22;;
54641;SDS011;40536;53.194;5.728;2023-08-31T12:09:29;47.30;;;44.53;;
54641;SDS011;40536;53.194;5.728;2023-08-31T12:11:56;36.30;;;34.08;;
54641;SDS011;40536;53.194;5.728;2023-08-31T12:14:23;36.83;;;34.92;;
54641;SDS011;40536;53.194;5.728;2023-08-31T12:16:50;38.00;;;35.90;;
54641;SDS011;40536;53.194;5.728;2023-08-31T12:19:17;44.85;;;42.50;;
54641;SDS011;40536;53.194;5.728;2023-08-31T12:21:43;45.53;;;43.33;;
54641;SDS011;40536;53.194;5.728;2023-08-31T12:24:10;35.88;;;33.78;;
54641;SDS011;40536;53.194;5.728;2023-08-31T12:26:36;29.40;;;27.50;;
54641;SDS011;40536;53.194;5.728;2023-08-31T12:29:03;31.33;;;29.63;;
54641;SDS011;40536;53.194;5.728;2023-08-31T12:31:32;25.00;;;23.50;;
54641;SDS011;40536;53.194;5.728;2023-08-31T12:33:58;29.27;;;27.58;;
54641;SDS011;40536;53.194;5.728;2023-08-31T12:36:25;40.13;;;37.63;;
54641;SDS011;40536;53.194;5.728;2023-08-31T12:38:51;32.10;;;30.35;;
54641;SDS011;40536;53.194;5.728;2023-08-31T12:41:19;15.82;;;14.75;;
54641;SDS011;40536;53.194;5.728;2023-08-31T12:43:45;27.55;;;25.73;;
54641;SDS011;40536;53.194;5.728;2023-08-31T12:46:11;14.30;;;13.30;;
54641;SDS011;40536;53.194;5.728;2023-08-31T12:48:38;15.25;;;14.30;;
54641;SDS011;40536;53.194;5.728;2023-08-31T12:51:04;12.88;;;11.88;;
54641;SDS011;40536;53.194;5.728;2023-08-31T12:53:30;11.80;;;7.95;;
54641;SDS011;40536;53.194;5.728;2023-08-31T12:55:55;14.20;;;13.10;;
54641;SDS011;40536;53.194;5.728;2023-08-31T12:58:21;18.02;;;16.67;;
54641;SDS011;40536;53.194;5.728;2023-08-31T13:00:47;24.25;;;22.85;;
54641;SDS011;40536;53.194;5.728;2023-08-31T13:03:15;28.17;;;26.48;;
54641;SDS011;40536;53.194;5.728;2023-08-31T13:05:41;30.40;;;28.77;;
54641;SDS011;40536;53.194;5.728;2023-08-31T13:08:07;32.95;;;31.13;;
54641;SDS011;40536;53.194;5.728;2023-08-31T13:10:34;44.50;;;42.10;;
54641;SDS011;40536;53.194;5.728;2023-08-31T13:13:01;33.58;;;31.30;;
54641;SDS011;40536;53.194;5.728;2023-08-31T13:15:26;26.42;;;24.65;;
54641;SDS011;40536;53.194;5.728;2023-08-31T13:17:52;23.33;;;21.83;;
54641;SDS011;40536;53.194;5.728;2023-08-31T13:20:18;22.23;;;20.63;;
54641;SDS011;40536;53.194;5.728;2023-08-31T13:22:44;15.05;;;13.80;;
54641;SDS011;40536;53.194;5.728;2023-08-31T13:25:09;26.30;;;24.45;;
54641;SDS011;40536;53.194;5.728;2023-08-31T13:27:36;26.58;;;24.92;;
54641;SDS011;40536;53.194;5.728;2023-08-31T13:30:02;15.30;;;14.00;;
54641;SDS011;40536;53.194;5.728;2023-08-31T13:32:31;14.52;;;13.30;;
54641;SDS011;40536;53.194;5.728;2023-08-31T13:34:57;7.85;;;7.05;;
54641;SDS011;40536;53.194;5.728;2023-08-31T13:37:22;22.60;;;20.85;;
54641;SDS011;40536;53.194;5.728;2023-08-31T13:39:49;15.02;;;13.82;;
54641;SDS011;40536;53.194;5.728;2023-08-31T13:42:21;10.07;;;9.18;;
54641;SDS011;40536;53.194;5.728;2023-08-31T13:44:47;8.55;;;7.78;;
54641;SDS011;40536;53.194;5.728;2023-08-31T13:47:12;9.07;;;4.93;;
54641;SDS011;40536;53.194;5.728;2023-08-31T13:49:38;6.72;;;5.25;;
54641;SDS011;40536;53.194;5.728;2023-08-31T13:52:04;6.95;;;5.10;;
54641;SDS011;40536;53.194;5.728;2023-08-31T13:54:31;6.07;;;5.22;;
54641;SDS011;40536;53.194;5.728;2023-08-31T13:56:58;5.18;;;4.63;;
54641;SDS011;40536;53.194;5.728;2023-08-31T13:59:23;9.32;;;8.32;;
54641;SDS011;40536;53.194;5.728;2023-08-31T14:01:52;8.57;;;7.57;;
54641;SDS011;40536;53.194;5.728;2023-08-31T14:04:18;7.88;;;7.15;;
54641;SDS011;40536;53.194;5.728;2023-08-31T14:06:44;12.93;;;8.57;;
54641;SDS011;40536;53.194;5.728;2023-08-31T14:09:09;8.38;;;7.00;;
54641;SDS011;40536;53.194;5.728;2023-08-31T14:11:35;6.50;;;5.90;;
54641;SDS011;40536;53.194;5.728;2023-08-31T14:14:04;11.18;;;7.20;;
54641;SDS011;40536;53.194;5.728;2023-08-31T14:16:34;10.45;;;9.45;;
54641;SDS011;40536;53.194;5.728;2023-08-31T14:19:01;8.38;;;6.78;;
54641;SDS011;40536;53.194;5.728;2023-08-31T14:21:27;19.42;;;10.13;;
54641;SDS011;40536;53.194;5.728;2023-08-31T14:23:53;21.25;;;19.42;;
54641;SDS011;40536;53.194;5.728;2023-08-31T14:26:21;24.13;;;22.73;;
54641;SDS011;40536;53.194;5.728;2023-08-31T14:28:50;25.40;;;23.73;;
54641;SDS011;40536;53.194;5.728;2023-08-31T14:31:16;29.42;;;27.90;;
54641;SDS011;40536;53.194;5.728;2023-08-31T14:33:43;34.20;;;32.15;;
54641;SDS011;40536;53.194;5.728;2023-08-31T14:36:09;50.22;;;47.67;;
54641;SDS011;40536;53.194;5.728;2023-08-31T14:38:35;42.15;;;39.67;;
54641;SDS011;40536;53.194;5.728;2023-08-31T14:41:00;46.58;;;44.08;;